Sakura Princess — D5BI8 — position and weather

sailwx.info

Track history (hours):
 
Tides and Currents Weather Stations Pressure Air Temp Water Temp Dewpoint Dewpoint Depression Visibility Wind Speed Wind Dir Waves Ship Positions

Sakura Princess

Last reported at 2017-Nov-16 05:09 UTC. Time now 2017-Nov-21 10:03 UTC.
Position N 29°21' W 094°44'.

Length 228 m; draft 8.5 m.

Type: Tanker. MMSI: 636015526.

Date/timePositionNaut miles runAvg speedWind from/ knotsBaromVisibWave heightAir tempDewpointWater temp
2017-Nov-16 05:09N 29°21' W 094°44'213.7
2017-Nov-16 05:00N 29°21' W 094°46'712.8
2017-Nov-16 04:29N 29°26' W 094°50'612.4
2017-Nov-16 04:00N 29°31' W 094°53'611.9
2017-Nov-16 03:30N 29°36' W 094°57'510.5
2017-Nov-16 03:01N 29°41' W 094°59'4 7.3
2017-Nov-16 02:30N 29°44' W 095°02'3 6.8
2017-Nov-16 02:00N 29°46' W 095°05'2 5.0
2017-Nov-16 01:30N 29°44' W 095°08'0 0.1
2017-Nov-16 01:00N 29°44' W 095°08'0 0.0
2017-Nov-16 00:30N 29°44' W 095°08'0 0.0
2017-Nov-16 00:00N 29°44' W 095°08'  
2017-Nov-13 00:56N 29°14' W 094°29'0 0.0
2017-Nov-13 00:05N 29°14' W 094°29'0 0.0
2017-Nov-12 23:59N 29°14' W 094°29'0 0.0
2017-Nov-12 23:26N 29°14' W 094°29'0 0.0
2017-Nov-12 01:23N 29°14' W 094°29'  
2017-Nov-07 11:50N 29°14' W 094°29'0 0.1
2017-Nov-07 10:26N 29°14' W 094°29'  
Track history (hours):
 
Tides and Currents Weather Stations Pressure Air Temp Water Temp Dewpoint Dewpoint Depression Visibility Wind Speed Wind Dir Waves Ship Positions

Sakura Princess

Last reported at 2017-Nov-16 05:09 UTC. Time now 2017-Nov-21 10:03 UTC.
Position N 29°21' W 094°44'.

Length 228 m; draft 8.5 m.

Type: Tanker. MMSI: 636015526.

Date/timePositionNaut miles runAvg speedWind from/ knotsBaromVisibWave heightAir tempDewpointWater temp
2017-Nov-16 05:09N 29°21' W 094°44'213.7
2017-Nov-16 05:00N 29°21' W 094°46'712.8
2017-Nov-16 04:29N 29°26' W 094°50'612.4
2017-Nov-16 04:00N 29°31' W 094°53'611.9
2017-Nov-16 03:30N 29°36' W 094°57'510.5
2017-Nov-16 03:01N 29°41' W 094°59'4 7.3
2017-Nov-16 02:30N 29°44' W 095°02'3 6.8
2017-Nov-16 02:00N 29°46' W 095°05'2 5.0
2017-Nov-16 01:30N 29°44' W 095°08'0 0.1
2017-Nov-16 01:00N 29°44' W 095°08'0 0.0
2017-Nov-16 00:30N 29°44' W 095°08'0 0.0
2017-Nov-16 00:00N 29°44' W 095°08'  
2017-Nov-13 00:56N 29°14' W 094°29'0 0.0
2017-Nov-13 00:05N 29°14' W 094°29'0 0.0
2017-Nov-12 23:59N 29°14' W 094°29'0 0.0
2017-Nov-12 23:26N 29°14' W 094°29'0 0.0
2017-Nov-12 01:23N 29°14' W 094°29'  
2017-Nov-07 11:50N 29°14' W 094°29'0 0.1
2017-Nov-07 10:26N 29°14' W 094°29'  

Dump ship's entire track history